sensor_id;sensor_type;location;lat;lon;timestamp;pressure;altitude;pressure_sealevel;temperature;humidity
40612;BME280;26317;44.894;20.286;2023-06-14T00:01:01;100408.41;;;20.14;66.34
40612;BME280;26317;44.894;20.286;2023-06-14T00:03:36;100401.72;;;20.11;66.78
40612;BME280;26317;44.894;20.286;2023-06-14T00:06:10;100399.66;;;20.08;67.19
40612;BME280;26317;44.894;20.286;2023-06-14T00:08:50;100398.63;;;20.01;66.92
40612;BME280;26317;44.894;20.286;2023-06-14T00:11:21;100392.13;;;19.93;67.31
40612;BME280;26317;44.894;20.286;2023-06-14T00:13:53;100392.13;;;19.93;67.50
40612;BME280;26317;44.894;20.286;2023-06-14T00:16:27;100381.66;;;19.83;67.54
40612;BME280;26317;44.894;20.286;2023-06-14T00:19:00;100395.19;;;19.92;67.74
40612;BME280;26317;44.894;20.286;2023-06-14T00:21:31;100401.19;;;19.85;68.32
40612;BME280;26317;44.894;20.286;2023-06-14T00:24:03;100402.31;;;19.84;67.91
40612;BME280;26317;44.894;20.286;2023-06-14T00:26:36;100384.34;;;19.71;68.45
40612;BME280;26317;44.894;20.286;2023-06-14T00:29:09;100381.59;;;19.59;68.81
40612;BME280;26317;44.894;20.286;2023-06-14T00:31:39;100391.03;;;19.61;68.60
40612;BME280;26317;44.894;20.286;2023-06-14T00:34:19;100394.28;;;19.55;69.42
40612;BME280;26317;44.894;20.286;2023-06-14T00:36:50;100396.75;;;19.48;70.00
40612;BME280;26317;44.894;20.286;2023-06-14T00:39:23;100386.22;;;19.38;71.04
40612;BME280;26317;44.894;20.286;2023-06-14T00:41:57;100391.22;;;19.36;71.46
40612;BME280;26317;44.894;20.286;2023-06-14T00:44:27;100392.00;;;19.36;71.35
40612;BME280;26317;44.894;20.286;2023-06-14T00:46:58;100391.28;;;19.27;72.05
40612;BME280;26317;44.894;20.286;2023-06-14T00:49:31;100398.63;;;19.26;72.44
40612;BME280;26317;44.894;20.286;2023-06-14T00:52:05;100393.41;;;19.21;72.79
40612;BME280;26317;44.894;20.286;2023-06-14T00:54:40;100393.59;;;19.16;73.23
40612;BME280;26317;44.894;20.286;2023-06-14T00:57:13;100393.44;;;19.13;73.35
40612;BME280;26317;44.894;20.286;2023-06-14T00:59:46;100398.31;;;19.07;73.98
40612;BME280;26317;44.894;20.286;2023-06-14T01:02:18;100395.31;;;19.00;74.66
40612;BME280;26317;44.894;20.286;2023-06-14T01:04:54;100373.03;;;18.86;75.37
40612;BME280;26317;44.894;20.286;2023-06-14T01:07:35;100379.41;;;18.90;75.27
40612;BME280;26317;44.894;20.286;2023-06-14T01:10:25;100380.38;;;18.86;75.47
40612;BME280;26317;44.894;20.286;2023-06-14T01:13:08;100392.84;;;18.87;75.66
40612;BME280;26317;44.894;20.286;2023-06-14T01:15:47;100384.22;;;18.84;76.11
40612;BME280;26317;44.894;20.286;2023-06-14T01:18:18;100382.63;;;18.83;75.73
40612;BME280;26317;44.894;20.286;2023-06-14T01:20:56;100388.84;;;18.84;75.80
40612;BME280;26317;44.894;20.286;2023-06-14T01:23:33;100397.50;;;18.86;76.24
40612;BME280;26317;44.894;20.286;2023-06-14T01:26:03;100374.88;;;18.73;76.24
40612;BME280;26317;44.894;20.286;2023-06-14T01:28:43;100394.56;;;18.91;75.94
40612;BME280;26317;44.894;20.286;2023-06-14T01:31:19;100381.31;;;18.90;75.86
40612;BME280;26317;44.894;20.286;2023-06-14T01:33:53;100390.84;;;18.96;75.54
40612;BME280;26317;44.894;20.286;2023-06-14T01:36:27;100388.47;;;18.94;75.41
40612;BME280;26317;44.894;20.286;2023-06-14T01:39:10;100383.03;;;18.94;75.46
40612;BME280;26317;44.894;20.286;2023-06-14T01:41:49;100383.84;;;18.95;75.52
40612;BME280;26317;44.894;20.286;2023-06-14T01:44:24;100384.66;;;18.95;75.57
40612;BME280;26317;44.894;20.286;2023-06-14T01:47:01;100393.56;;;18.96;76.03
40612;BME280;26317;44.894;20.286;2023-06-14T01:49:33;100387.00;;;18.97;75.84
40612;BME280;26317;44.894;20.286;2023-06-14T01:52:05;100392.44;;;18.97;75.72
40612;BME280;26317;44.894;20.286;2023-06-14T01:54:42;100392.00;;;18.95;76.08
40612;BME280;26317;44.894;20.286;2023-06-14T01:57:19;100393.44;;;18.92;76.56
40612;BME280;26317;44.894;20.286;2023-06-14T01:59:50;100381.81;;;18.83;76.50
40612;BME280;26317;44.894;20.286;2023-06-14T02:02:27;100394.56;;;18.91;76.91
40612;BME280;26317;44.894;20.286;2023-06-14T02:05:07;100389.78;;;18.88;77.60
40612;BME280;26317;44.894;20.286;2023-06-14T02:07:42;100401.78;;;18.87;78.01
40612;BME280;26317;44.894;20.286;2023-06-14T02:10:28;100402.94;;;18.86;77.63
40612;BME280;26317;44.894;20.286;2023-06-14T02:12:59;100400.06;;;18.82;78.22
40612;BME280;26317;44.894;20.286;2023-06-14T02:15:31;100401.84;;;18.78;78.56
40612;BME280;26317;44.894;20.286;2023-06-14T02:18:08;100407.91;;;18.75;79.10
40612;BME280;26317;44.894;20.286;2023-06-14T02:20:41;100410.50;;;18.72;79.32
40612;BME280;26317;44.894;20.286;2023-06-14T02:23:15;100415.50;;;18.70;79.30
40612;BME280;26317;44.894;20.286;2023-06-14T02:25:50;100412.94;;;18.65;80.27
40612;BME280;26317;44.894;20.286;2023-06-14T02:28:23;100408.66;;;18.55;80.39
40612;BME280;26317;44.894;20.286;2023-06-14T02:30:54;100392.56;;;18.42;80.55
40612;BME280;26317;44.894;20.286;2023-06-14T02:33:25;100417.78;;;18.42;81.56
40612;BME280;26317;44.894;20.286;2023-06-14T02:35:57;100415.59;;;18.35;81.85
40612;BME280;26317;44.894;20.286;2023-06-14T02:38:28;100425.50;;;18.31;82.11
40612;BME280;26317;44.894;20.286;2023-06-14T02:41:04;100397.75;;;18.17;82.53
40612;BME280;26317;44.894;20.286;2023-06-14T02:43:36;100415.94;;;18.25;83.05
40612;BME280;26317;44.894;20.286;2023-06-14T02:46:09;100416.28;;;18.24;83.24
40612;BME280;26317;44.894;20.286;2023-06-14T02:48:42;100370.53;;;17.97;83.62
40612;BME280;26317;44.894;20.286;2023-06-14T02:51:14;100381.22;;;17.93;84.18
40612;BME280;26317;44.894;20.286;2023-06-14T02:53:45;100410.72;;;18.12;85.07
40612;BME280;26317;44.894;20.286;2023-06-14T02:56:23;100411.03;;;18.10;84.57
40612;BME280;26317;44.894;20.286;2023-06-14T02:58:57;100414.22;;;18.12;84.79
40612;BME280;26317;44.894;20.286;2023-06-14T03:01:32;100414.72;;;18.14;84.79
40612;BME280;26317;44.894;20.286;2023-06-14T03:04:12;100420.59;;;18.16;84.22
40612;BME280;26317;44.894;20.286;2023-06-14T03:06:50;100396.53;;;18.06;84.19
40612;BME280;26317;44.894;20.286;2023-06-14T03:09:22;100419.16;;;18.19;84.03
40612;BME280;26317;44.894;20.286;2023-06-14T03:12:02;100419.00;;;18.24;83.60
40612;BME280;26317;44.894;20.286;2023-06-14T03:14:36;100416.59;;;18.22;83.18
40612;BME280;26317;44.894;20.286;2023-06-14T03:17:09;100421.38;;;18.25;83.05
40612;BME280;26317;44.894;20.286;2023-06-14T03:19:40;100425.03;;;18.29;83.24
40612;BME280;26317;44.894;20.286;2023-06-14T03:22:13;100432.56;;;18.32;83.33
40612;BME280;26317;44.894;20.286;2023-06-14T03:24:49;100432.22;;;18.34;83.36
40612;BME280;26317;44.894;20.286;2023-06-14T03:27:25;100424.84;;;18.34;83.23
40612;BME280;26317;44.894;20.286;2023-06-14T03:30:02;100433.94;;;18.38;83.43
40612;BME280;26317;44.894;20.286;2023-06-14T03:32:36;100433.63;;;18.40;83.46
40612;BME280;26317;44.894;20.286;2023-06-14T03:35:10;100423.25;;;18.33;82.92
40612;BME280;26317;44.894;20.286;2023-06-14T03:37:49;100434.44;;;18.41;82.96
40612;BME280;26317;44.894;20.286;2023-06-14T03:40:22;100429.94;;;18.45;82.59
40612;BME280;26317;44.894;20.286;2023-06-14T03:43:05;100430.56;;;18.42;82.36
40612;BME280;26317;44.894;20.286;2023-06-14T03:45:40;100442.38;;;18.46;82.33
40612;BME280;26317;44.894;20.286;2023-06-14T03:48:10;100429.94;;;18.45;82.11
40612;BME280;26317;44.894;20.286;2023-06-14T03:50:42;100436.94;;;18.46;82.38
40612;BME280;26317;44.894;20.286;2023-06-14T03:53:17;100440.59;;;18.50;82.73
40612;BME280;26317;44.894;20.286;2023-06-14T03:55:56;100423.72;;;18.44;83.40
40612;BME280;26317;44.894;20.286;2023-06-14T03:58:44;100424.31;;;18.50;84.12
40612;BME280;26317;44.894;20.286;2023-06-14T04:01:36;100425.91;;;18.51;84.40
40612;BME280;26317;44.894;20.286;2023-06-14T04:04:17;100429.28;;;18.48;85.16
40612;BME280;26317;44.894;20.286;2023-06-14T04:07:00;100432.31;;;18.46;85.44
40612;BME280;26317;44.894;20.286;2023-06-14T04:09:32;100424.06;;;18.34;85.84
40612;BME280;26317;44.894;20.286;2023-06-14T04:12:08;100440.94;;;18.48;86.26
40612;BME280;26317;44.894;20.286;2023-06-14T04:14:53;100448.75;;;18.50;86.65
40612;BME280;26317;44.894;20.286;2023-06-14T04:17:39;100446.25;;;18.53;87.23
40612;BME280;26317;44.894;20.286;2023-06-14T04:20:11;100447.50;;;18.56;87.05
40612;BME280;26317;44.894;20.286;2023-06-14T04:22:44;100441.53;;;18.62;87.10
40612;BME280;26317;44.894;20.286;2023-06-14T04:25:19;100452.59;;;18.66;87.13
40612;BME280;26317;44.894;20.286;2023-06-14T04:27:58;100453.97;;;18.72;86.68
40612;BME280;26317;44.894;20.286;2023-06-14T04:30:40;100439.81;;;18.58;87.15
40612;BME280;26317;44.894;20.286;2023-06-14T04:33:19;100462.94;;;18.72;87.05
40612;BME280;26317;44.894;20.286;2023-06-14T04:35:52;100447.72;;;18.80;87.13
40612;BME280;26317;44.894;20.286;2023-06-14T04:38:26;100450.69;;;18.87;87.10
40612;BME280;26317;44.894;20.286;2023-06-14T04:41:00;100460.94;;;18.90;87.50
40612;BME280;26317;44.894;20.286;2023-06-14T04:43:33;100461.06;;;18.94;86.99
40612;BME280;26317;44.894;20.286;2023-06-14T04:46:13;100456.09;;;18.96;87.59
40612;BME280;26317;44.894;20.286;2023-06-14T04:48:48;100448.41;;;18.98;87.06
40612;BME280;26317;44.894;20.286;2023-06-14T04:51:18;100456.97;;;19.08;87.76
40612;BME280;26317;44.894;20.286;2023-06-14T04:53:58;100462.91;;;19.10;87.91
40612;BME280;26317;44.894;20.286;2023-06-14T04:56:36;100452.22;;;19.05;87.78
40612;BME280;26317;44.894;20.286;2023-06-14T04:59:16;100461.38;;;19.21;88.31
40612;BME280;26317;44.894;20.286;2023-06-14T05:01:56;100467.09;;;19.28;88.75
40612;BME280;26317;44.894;20.286;2023-06-14T05:04:31;100461.75;;;19.41;89.18
40612;BME280;26317;44.894;20.286;2023-06-14T05:07:07;100466.81;;;19.51;89.53
40612;BME280;26317;44.894;20.286;2023-06-14T05:09:38;100459.56;;;19.55;89.75
40612;BME280;26317;44.894;20.286;2023-06-14T05:12:10;100456.47;;;19.65;88.72
40612;BME280;26317;44.894;20.286;2023-06-14T05:14:42;100463.44;;;19.74;88.24
40612;BME280;26317;44.894;20.286;2023-06-14T05:17:19;100469.56;;;19.84;88.43
40612;BME280;26317;44.894;20.286;2023-06-14T05:19:50;100467.44;;;19.89;87.17
40612;BME280;26317;44.894;20.286;2023-06-14T05:22:21;100459.94;;;19.86;87.32
40612;BME280;26317;44.894;20.286;2023-06-14T05:25:01;100473.22;;;19.88;87.04
40612;BME280;26317;44.894;20.286;2023-06-14T05:27:33;100471.75;;;19.90;87.50
40612;BME280;26317;44.894;20.286;2023-06-14T05:30:16;100468.97;;;19.99;86.61
40612;BME280;26317;44.894;20.286;2023-06-14T05:32:55;100463.16;;;20.00;87.28
40612;BME280;26317;44.894;20.286;2023-06-14T05:35:27;100465.56;;;20.02;86.72
40612;BME280;26317;44.894;20.286;2023-06-14T05:38:02;100467.97;;;20.03;87.21
40612;BME280;26317;44.894;20.286;2023-06-14T05:40:38;100459.22;;;20.10;87.40
40612;BME280;26317;44.894;20.286;2023-06-14T05:43:09;100466.31;;;20.23;87.17
40612;BME280;26317;44.894;20.286;2023-06-14T05:45:39;100468.81;;;20.28;87.67
40612;BME280;26317;44.894;20.286;2023-06-14T05:48:17;100472.13;;;20.34;86.57
40612;BME280;26317;44.894;20.286;2023-06-14T05:50:48;100470.00;;;20.39;86.23
40612;BME280;26317;44.894;20.286;2023-06-14T05:53:22;100469.09;;;20.47;84.94
40612;BME280;26317;44.894;20.286;2023-06-14T05:55:58;100479.22;;;20.59;84.82
40612;BME280;26317;44.894;20.286;2023-06-14T05:58:31;100480.13;;;20.63;84.16
40612;BME280;26317;44.894;20.286;2023-06-14T06:01:03;100482.66;;;20.68;83.35
40612;BME280;26317;44.894;20.286;2023-06-14T06:03:39;100484.03;;;20.74;83.47
40612;BME280;26317;44.894;20.286;2023-06-14T06:06:14;100463.13;;;20.66;82.84
40612;BME280;26317;44.894;20.286;2023-06-14T06:08:44;100457.78;;;20.70;83.20
40612;BME280;26317;44.894;20.286;2023-06-14T06:11:15;100490.50;;;20.94;83.34
40612;BME280;26317;44.894;20.286;2023-06-14T06:13:50;100473.78;;;20.83;83.02
40612;BME280;26317;44.894;20.286;2023-06-14T06:16:23;100493.91;;;21.03;82.25
40612;BME280;26317;44.894;20.286;2023-06-14T06:18:59;100487.56;;;20.99;82.51
40612;BME280;26317;44.894;20.286;2023-06-14T06:21:30;100484.84;;;20.99;82.72
40612;BME280;26317;44.894;20.286;2023-06-14T06:24:00;100502.22;;;21.06;81.40
40612;BME280;26317;44.894;20.286;2023-06-14T06:26:33;100499.72;;;21.01;78.43
40612;BME280;26317;44.894;20.286;2023-06-14T06:29:04;100502.91;;;21.16;78.71
40612;BME280;26317;44.894;20.286;2023-06-14T06:31:34;100500.88;;;21.25;76.87
40612;BME280;26317;44.894;20.286;2023-06-14T06:34:07;100503.91;;;21.35;76.90
40612;BME280;26317;44.894;20.286;2023-06-14T06:36:39;100509.69;;;21.46;74.04
40612;BME280;26317;44.894;20.286;2023-06-14T06:39:10;100507.84;;;21.50;75.46
40612;BME280;26317;44.894;20.286;2023-06-14T06:41:44;100505.13;;;21.62;73.37
40612;BME280;26317;44.894;20.286;2023-06-14T06:44:28;100505.09;;;21.74;74.63
40612;BME280;26317;44.894;20.286;2023-06-14T06:47:02;100504.50;;;21.81;71.10
40612;BME280;26317;44.894;20.286;2023-06-14T06:49:38;100507.88;;;21.90;70.09
40612;BME280;26317;44.894;20.286;2023-06-14T06:52:09;100504.13;;;21.94;67.31
40612;BME280;26317;44.894;20.286;2023-06-14T06:54:48;100511.81;;;22.05;66.01
40612;BME280;26317;44.894;20.286;2023-06-14T06:57:22;100506.56;;;22.12;65.45
40612;BME280;26317;44.894;20.286;2023-06-14T06:59:57;100506.81;;;22.07;65.67
40612;BME280;26317;44.894;20.286;2023-06-14T07:02:28;100509.94;;;22.21;65.71
40612;BME280;26317;44.894;20.286;2023-06-14T07:05:03;100503.38;;;22.37;65.52
40612;BME280;26317;44.894;20.286;2023-06-14T07:07:35;100522.03;;;22.35;61.12
40612;BME280;26317;44.894;20.286;2023-06-14T07:10:07;100520.66;;;22.41;60.71
40612;BME280;26317;44.894;20.286;2023-06-14T07:12:37;100519.66;;;22.34;57.27
40612;BME280;26317;44.894;20.286;2023-06-14T07:15:09;100530.97;;;22.48;55.64
40612;BME280;26317;44.894;20.286;2023-06-14T07:17:49;100524.53;;;22.56;55.87
40612;BME280;26317;44.894;20.286;2023-06-14T07:20:32;100525.88;;;22.62;53.80
40612;BME280;26317;44.894;20.286;2023-06-14T07:23:08;100526.88;;;22.70;53.27
40612;BME280;26317;44.894;20.286;2023-06-14T07:25:40;100531.38;;;22.78;54.45
40612;BME280;26317;44.894;20.286;2023-06-14T07:28:11;100526.06;;;23.01;55.11
40612;BME280;26317;44.894;20.286;2023-06-14T07:30:42;100492.19;;;22.89;53.79
40612;BME280;26317;44.894;20.286;2023-06-14T07:33:13;100534.38;;;23.20;53.87
40612;BME280;26317;44.894;20.286;2023-06-14T07:35:47;100533.91;;;23.33;53.62
40612;BME280;26317;44.894;20.286;2023-06-14T07:38:22;100539.16;;;23.42;53.32
40612;BME280;26317;44.894;20.286;2023-06-14T07:40:53;100528.91;;;23.55;53.60
40612;BME280;26317;44.894;20.286;2023-06-14T07:43:24;100537.31;;;23.62;52.49
40612;BME280;26317;44.894;20.286;2023-06-14T07:45:55;100529.97;;;23.66;52.80
40612;BME280;26317;44.894;20.286;2023-06-14T07:48:33;100540.00;;;23.77;52.65
40612;BME280;26317;44.894;20.286;2023-06-14T07:51:08;100534.38;;;23.90;50.62
40612;BME280;26317;44.894;20.286;2023-06-14T07:53:38;100543.03;;;23.92;50.21
40612;BME280;26317;44.894;20.286;2023-06-14T07:56:08;100536.59;;;23.84;50.20
40612;BME280;26317;44.894;20.286;2023-06-14T07:58:39;100540.06;;;23.81;51.12
40612;BME280;26317;44.894;20.286;2023-06-14T08:01:09;100533.50;;;23.86;51.12
40612;BME280;26317;44.894;20.286;2023-06-14T08:03:41;100521.97;;;23.76;50.58
40612;BME280;26317;44.894;20.286;2023-06-14T08:06:15;100520.59;;;23.67;50.04
40612;BME280;26317;44.894;20.286;2023-06-14T08:08:45;100529.75;;;23.74;50.55
40612;BME280;26317;44.894;20.286;2023-06-14T08:11:16;100543.59;;;23.81;51.06
40612;BME280;26317;44.894;20.286;2023-06-14T08:13:46;100534.50;;;23.77;51.40
40612;BME280;26317;44.894;20.286;2023-06-14T08:16:18;100535.09;;;23.87;49.70
40612;BME280;26317;44.894;20.286;2023-06-14T08:18:49;100547.13;;;24.01;49.15
40612;BME280;26317;44.894;20.286;2023-06-14T08:21:23;100540.22;;;24.07;49.73
40612;BME280;26317;44.894;20.286;2023-06-14T08:23:58;100549.66;;;24.10;47.85
40612;BME280;26317;44.894;20.286;2023-06-14T08:26:29;100550.44;;;24.10;48.88
40612;BME280;26317;44.894;20.286;2023-06-14T08:29:00;100548.66;;;23.99;46.26
40612;BME280;26317;44.894;20.286;2023-06-14T08:31:31;100545.47;;;23.97;47.85
40612;BME280;26317;44.894;20.286;2023-06-14T08:34:02;100551.13;;;24.04;47.03
40612;BME280;26317;44.894;20.286;2023-06-14T08:36:37;100552.34;;;24.06;46.71
40612;BME280;26317;44.894;20.286;2023-06-14T08:39:08;100540.00;;;23.97;46.07
40612;BME280;26317;44.894;20.286;2023-06-14T08:41:38;100555.34;;;24.01;43.54
40612;BME280;26317;44.894;20.286;2023-06-14T08:44:09;100550.09;;;24.12;42.74
40612;BME280;26317;44.894;20.286;2023-06-14T08:46:40;100544.00;;;24.18;41.18
40612;BME280;26317;44.894;20.286;2023-06-14T08:49:13;100532.66;;;24.20;39.29
40612;BME280;26317;44.894;20.286;2023-06-14T08:51:50;100538.72;;;24.29;37.87
40612;BME280;26317;44.894;20.286;2023-06-14T08:54:25;100547.19;;;24.43;40.08
40612;BME280;26317;44.894;20.286;2023-06-14T08:56:58;100540.75;;;24.55;41.39
40612;BME280;26317;44.894;20.286;2023-06-14T08:59:29;100534.00;;;24.71;44.59
40612;BME280;26317;44.894;20.286;2023-06-14T09:02:06;100529.44;;;24.56;42.37
40612;BME280;26317;44.894;20.286;2023-06-14T09:04:40;100535.13;;;24.67;44.89
40612;BME280;26317;44.894;20.286;2023-06-14T09:07:14;100531.69;;;24.73;44.41
40612;BME280;26317;44.894;20.286;2023-06-14T09:09:44;100527.50;;;24.80;46.05
40612;BME280;26317;44.894;20.286;2023-06-14T09:12:32;100538.38;;;24.76;46.18
40612;BME280;26317;44.894;20.286;2023-06-14T09:15:07;100533.13;;;24.87;46.32
40612;BME280;26317;44.894;20.286;2023-06-14T09:17:38;100539.03;;;24.89;47.05
40612;BME280;26317;44.894;20.286;2023-06-14T09:20:10;100536.22;;;24.85;45.32
40612;BME280;26317;44.894;20.286;2023-06-14T09:22:49;100534.28;;;24.86;45.77
40612;BME280;26317;44.894;20.286;2023-06-14T09:25:19;100532.81;;;24.92;46.59
40612;BME280;26317;44.894;20.286;2023-06-14T09:28:06;100518.31;;;24.91;47.10
40612;BME280;26317;44.894;20.286;2023-06-14T09:30:38;100531.28;;;25.17;47.42
40612;BME280;26317;44.894;20.286;2023-06-14T09:33:09;100530.03;;;25.14;45.27
40612;BME280;26317;44.894;20.286;2023-06-14T09:35:39;100518.59;;;25.09;45.78
40612;BME280;26317;44.894;20.286;2023-06-14T09:38:13;100525.53;;;25.03;46.18
40612;BME280;26317;44.894;20.286;2023-06-14T09:40:43;100524.44;;;25.07;45.82
40612;BME280;26317;44.894;20.286;2023-06-14T09:43:14;100521.78;;;25.14;45.99
40612;BME280;26317;44.894;20.286;2023-06-14T09:45:45;100506.81;;;25.08;46.24
40612;BME280;26317;44.894;20.286;2023-06-14T09:48:16;100499.16;;;25.21;45.36
40612;BME280;26317;44.894;20.286;2023-06-14T09:50:47;100522.16;;;25.39;44.92
40612;BME280;26317;44.894;20.286;2023-06-14T09:53:24;100516.13;;;25.53;44.61
40612;BME280;26317;44.894;20.286;2023-06-14T09:55:57;100522.56;;;25.68;43.98
40612;BME280;26317;44.894;20.286;2023-06-14T09:58:29;100526.69;;;25.81;42.91
40612;BME280;26317;44.894;20.286;2023-06-14T10:01:02;100518.47;;;25.84;41.90
40612;BME280;26317;44.894;20.286;2023-06-14T10:03:33;100517.72;;;25.84;41.93
40612;BME280;26317;44.894;20.286;2023-06-14T10:06:25;100525.28;;;25.94;42.56
40612;BME280;26317;44.894;20.286;2023-06-14T10:09:00;100525.34;;;26.01;38.48
40612;BME280;26317;44.894;20.286;2023-06-14T10:11:33;100514.47;;;26.08;38.87
40612;BME280;26317;44.894;20.286;2023-06-14T10:14:06;100520.84;;;26.19;39.50
40612;BME280;26317;44.894;20.286;2023-06-14T10:16:41;100521.75;;;26.27;39.90
40612;BME280;26317;44.894;20.286;2023-06-14T10:19:17;100517.97;;;26.38;40.39
40612;BME280;26317;44.894;20.286;2023-06-14T10:21:57;100511.72;;;26.45;38.79
40612;BME280;26317;44.894;20.286;2023-06-14T10:24:33;100500.28;;;26.39;39.60
40612;BME280;26317;44.894;20.286;2023-06-14T10:27:07;100516.09;;;26.49;40.19
40612;BME280;26317;44.894;20.286;2023-06-14T10:30:03;100507.50;;;26.54;39.35
40612;BME280;26317;44.894;20.286;2023-06-14T10:32:35;100502.50;;;26.67;39.15
40612;BME280;26317;44.894;20.286;2023-06-14T10:35:25;100508.13;;;26.81;38.29
40612;BME280;26317;44.894;20.286;2023-06-14T10:38:06;100503.41;;;26.82;39.47
40612;BME280;26317;44.894;20.286;2023-06-14T10:40:39;100494.50;;;26.92;38.26
40612;BME280;26317;44.894;20.286;2023-06-14T10:43:22;100494.09;;;26.93;38.50
40612;BME280;26317;44.894;20.286;2023-06-14T10:46:17;100493.41;;;27.07;38.92
40612;BME280;26317;44.894;20.286;2023-06-14T10:48:57;100501.28;;;27.09;37.70
40612;BME280;26317;44.894;20.286;2023-06-14T10:51:29;100492.63;;;27.10;38.81
40612;BME280;26317;44.894;20.286;2023-06-14T10:54:13;100488.69;;;27.04;38.60
40612;BME280;26317;44.894;20.286;2023-06-14T10:56:49;100488.69;;;27.04;38.71
40612;BME280;26317;44.894;20.286;2023-06-14T10:59:20;100498.09;;;27.03;38.25
40612;BME280;26317;44.894;20.286;2023-06-14T11:01:58;100485.50;;;27.02;37.75
40612;BME280;26317;44.894;20.286;2023-06-14T11:04:32;100483.53;;;27.03;38.59
40612;BME280;26317;44.894;20.286;2023-06-14T11:07:15;100491.59;;;26.78;38.63
40612;BME280;26317;44.894;20.286;2023-06-14T11:10:03;100481.69;;;26.70;39.32
40612;BME280;26317;44.894;20.286;2023-06-14T11:12:39;100475.72;;;26.61;39.05
40612;BME280;26317;44.894;20.286;2023-06-14T11:15:12;100480.44;;;26.64;38.63
40612;BME280;26317;44.894;20.286;2023-06-14T11:17:50;100473.59;;;26.43;39.48
40612;BME280;26317;44.894;20.286;2023-06-14T11:20:25;100483.16;;;26.57;40.39
40612;BME280;26317;44.894;20.286;2023-06-14T11:22:56;100480.38;;;26.53;40.59
40612;BME280;26317;44.894;20.286;2023-06-14T11:25:29;100476.47;;;26.58;40.25
40612;BME280;26317;44.894;20.286;2023-06-14T11:28:05;100469.72;;;26.51;42.31
40612;BME280;26317;44.894;20.286;2023-06-14T11:30:37;100479.53;;;26.49;39.86
40612;BME280;26317;44.894;20.286;2023-06-14T11:33:09;100474.66;;;26.32;39.46
40612;BME280;26317;44.894;20.286;2023-06-14T11:35:41;100474.78;;;26.42;39.60
40612;BME280;26317;44.894;20.286;2023-06-14T11:38:13;100469.38;;;26.57;39.11
40612;BME280;26317;44.894;20.286;2023-06-14T11:40:43;100456.41;;;26.57;39.88
40612;BME280;26317;44.894;20.286;2023-06-14T11:43:16;100464.00;;;26.71;38.85
40612;BME280;26317;44.894;20.286;2023-06-14T11:45:48;100476.00;;;26.92;38.73
40612;BME280;26317;44.894;20.286;2023-06-14T11:48:37;100472.56;;;27.10;37.01
40612;BME280;26317;44.894;20.286;2023-06-14T11:51:07;100473.09;;;27.26;37.49
40612;BME280;26317;44.894;20.286;2023-06-14T11:53:38;100476.25;;;27.31;36.96
40612;BME280;26317;44.894;20.286;2023-06-14T11:56:09;100451.06;;;27.33;35.64
40612;BME280;26317;44.894;20.286;2023-06-14T11:58:45;100469.22;;;27.44;35.10
40612;BME280;26317;44.894;20.286;2023-06-14T12:01:17;100457.50;;;27.51;36.23
40612;BME280;26317;44.894;20.286;2023-06-14T12:03:48;100462.25;;;27.65;36.26
40612;BME280;26317;44.894;20.286;2023-06-14T12:06:26;100463.13;;;27.76;35.93
40612;BME280;26317;44.894;20.286;2023-06-14T12:09:03;100466.69;;;27.83;35.43
40612;BME280;26317;44.894;20.286;2023-06-14T12:11:39;100441.84;;;27.80;34.01
40612;BME280;26317;44.894;20.286;2023-06-14T12:14:12;100450.09;;;27.73;34.09
40612;BME280;26317;44.894;20.286;2023-06-14T12:16:43;100450.50;;;27.78;34.04
40612;BME280;26317;44.894;20.286;2023-06-14T12:19:15;100448.13;;;27.80;34.51
40612;BME280;26317;44.894;20.286;2023-06-14T12:21:46;100449.78;;;27.96;34.94
40612;BME280;26317;44.894;20.286;2023-06-14T12:24:18;100441.13;;;28.08;34.12
40612;BME280;26317;44.894;20.286;2023-06-14T12:26:48;100445.91;;;28.35;34.13
40612;BME280;26317;44.894;20.286;2023-06-14T12:29:23;100439.63;;;28.53;33.25
40612;BME280;26317;44.894;20.286;2023-06-14T12:31:54;100429.38;;;28.60;32.46
40612;BME280;26317;44.894;20.286;2023-06-14T12:34:24;100427.44;;;28.75;32.94
40612;BME280;26317;44.894;20.286;2023-06-14T12:36:55;100430.94;;;28.86;32.13
40612;BME280;26317;44.894;20.286;2023-06-14T12:39:25;100420.28;;;28.95;32.66
40612;BME280;26317;44.894;20.286;2023-06-14T12:41:57;100413.94;;;29.02;32.12
40612;BME280;26317;44.894;20.286;2023-06-14T12:44:30;100397.75;;;29.11;31.13
40612;BME280;26317;44.894;20.286;2023-06-14T12:47:00;100402.91;;;29.02;30.21
40612;BME280;26317;44.894;20.286;2023-06-14T12:49:31;100408.81;;;29.07;31.34
40612;BME280;26317;44.894;20.286;2023-06-14T12:52:01;100407.25;;;28.99;30.81
40612;BME280;26317;44.894;20.286;2023-06-14T12:54:32;100405.63;;;29.16;31.66
40612;BME280;26317;44.894;20.286;2023-06-14T12:57:07;100405.69;;;29.05;32.47
40612;BME280;26317;44.894;20.286;2023-06-14T12:59:40;100415.91;;;29.12;32.56
40612;BME280;26317;44.894;20.286;2023-06-14T13:02:13;100407.19;;;29.20;31.32
40612;BME280;26317;44.894;20.286;2023-06-14T13:04:43;100407.19;;;29.35;31.24
40612;BME280;26317;44.894;20.286;2023-06-14T13:07:14;100396.53;;;29.30;30.98
40612;BME280;26317;44.894;20.286;2023-06-14T13:09:44;100404.75;;;29.44;30.70
40612;BME280;26317;44.894;20.286;2023-06-14T13:12:15;100407.81;;;29.67;31.25
40612;BME280;26317;44.894;20.286;2023-06-14T13:14:48;100404.63;;;29.76;29.52
40612;BME280;26317;44.894;20.286;2023-06-14T13:17:18;100406.19;;;29.80;29.73